Time;durP1;ratioP1;P1;durP2;ratioP2;P2;SDS_P1;SDS_P2;PMS_P1;PMS_P2;Temp;Humidity;BMP_temperature;BMP_pressure;BME280_temperature;BME280_humidity;BME280_pressure;Samples;Min_cycle;Max_cycle;Signal;HPM_P1;HPM_P2
2022/05/18 00:00:50;;;;;;;3.55;2.22;;;;;;;11.55;40.85;100517.09;5110696;28;20448;-81
2022/05/18 00:03:19;;;;;;;6.55;2.72;;;;;;;11.52;40.93;100527.63;5111222;28;20035;-81
2022/05/18 00:05:45;;;;;;;5.38;2.10;;;;;;;11.53;41.06;100527.56;5112190;28;20024;-81
2022/05/18 00:08:11;;;;;;;2.65;2.10;;;;;;;11.48;40.84;100532.09;5112375;28;20035;-81
2022/05/18 00:10:40;;;;;;;3.92;2.20;;;;;;;11.40;40.79;100515.88;5112332;28;20533;-81
2022/05/18 00:13:06;;;;;;;4.07;1.95;;;;;;;11.45;40.92;100534.81;5111926;28;20027;-81
2022/05/18 00:15:32;;;;;;;4.55;1.92;;;;;;;11.43;41.04;100534.88;5112374;28;20026;-81
2022/05/18 00:17:58;;;;;;;4.03;2.30;;;;;;;11.38;41.18;100533.34;5111893;28;20094;-81
2022/05/18 00:20:24;;;;;;;3.97;2.20;;;;;;;11.29;41.11;100523.22;5110882;28;20023;-80
2022/05/18 00:22:54;;;;;;;4.55;1.98;;;;;;;11.27;41.47;100535.47;5112040;28;20024;-81
2022/05/18 00:25:21;;;;;;;;;;;;;;;11.24;41.59;100539.88;5111268;28;20024;-80
2022/05/18 00:27:46;;;;;;;2.80;2.10;;;;;;;11.16;41.89;100528.84;5111820;28;20368;-81
2022/05/18 00:30:14;;;;;;;7.25;2.53;;;;;;;11.10;42.05;100526.47;5111014;28;20070;-81
2022/05/18 00:32:40;;;;;;;3.90;1.90;;;;;;;11.12;42.17;100547.28;5110985;28;20019;-81
2022/05/18 00:35:06;;;;;;;3.20;2.13;;;;;;;11.06;42.19;100544.88;5110779;28;20034;-81
2022/05/18 00:37:32;;;;;;;5.20;2.30;;;;;;;11.03;42.35;100551.03;5112075;28;20027;-80
2022/05/18 00:39:57;;;;;;;5.60;2.20;;;;;;;10.99;42.54;100555.50;5111692;28;20483;-81
2022/05/18 00:42:24;;;;;;;3.80;2.03;;;;;;;10.88;42.71;100547.22;5111943;28;20034;-81
2022/05/18 00:44:50;;;;;;;2.97;2.08;;;;;;;10.84;42.53;100543.00;5112030;28;20062;-81
2022/05/18 00:47:16;;;;;;;3.15;2.25;;;;;;;10.87;42.90;100561.16;5112075;28;20059;-81
2022/05/18 00:49:46;;;;;;;2.85;2.10;;;;;;;10.80;43.31;100553.59;5114523;28;20063;-80
2022/05/18 00:52:14;;;;;;;4.22;2.33;;;;;;;10.81;43.45;100563.94;5116005;28;20027;-80
2022/05/18 00:54:42;;;;;;;4.57;2.30;;;;;;;10.78;43.62;100560.59;5115735;28;20531;-81
2022/05/18 00:57:15;;;;;;;2.60;1.95;;;;;;;10.68;43.79;100565.25;5115769;28;20019;-80
2022/05/18 00:59:52;;;;;;;4.35;2.03;;;;;;;10.59;44.24;100553.38;5115814;28;20031;-80
2022/05/18 01:02:21;;;;;;;6.05;2.08;;;;;;;10.63;44.29;100569.78;5114507;28;20389;-81
2022/05/18 01:04:51;;;;;;;2.33;2.13;;;;;;;10.58;44.22;100576.91;5114057;28;20114;-80
2022/05/18 01:07:22;;;;;;;6.88;2.10;;;;;;;10.42;44.30;100560.88;5114271;28;20026;-81
2022/05/18 01:09:50;;;;;;;4.38;2.30;;;;;;;10.42;44.63;100577.34;5115298;28;20417;-80
2022/05/18 01:12:18;;;;;;;4.50;2.40;;;;;;;10.41;44.82;100593.03;5115644;28;20031;-81
2022/05/18 01:14:58;;;;;;;3.35;2.20;;;;;;;10.36;44.97;100587.94;5114250;28;20027;-80
2022/05/18 01:17:27;;;;;;;2.10;1.90;;;;;;;10.25;45.25;100584.84;5114196;28;20059;-80
2022/05/18 01:19:55;;;;;;;3.20;2.47;;;;;;;10.27;45.50;100593.44;5113657;28;20101;-80
2022/05/18 01:22:29;;;;;;;3.67;2.35;;;;;;;10.24;45.45;100597.00;5114134;28;20031;-80
2022/05/18 01:25:37;;;;;;;10.18;2.20;;;;;;;10.17;45.66;100597.19;5113781;28;20096;-81
2022/05/18 01:28:04;;;;;;;2.72;2.17;;;;;;;10.12;46.22;100599.09;5015223;28;20482;-80
2022/05/18 01:30:31;;;;;;;4.75;2.58;;;;;;;10.09;46.01;100601.78;5015505;28;20044;-81
2022/05/18 01:32:58;;;;;;;2.60;2.03;;;;;;;9.92;46.36;100589.25;5015371;28;20491;-80
2022/05/18 01:35:28;;;;;;;4.18;2.22;;;;;;;9.97;46.41;100603.84;5015403;28;20079;-80
2022/05/18 01:37:57;;;;;;;3.72;2.03;;;;;;;9.92;46.62;100610.06;5015186;28;20021;-80
2022/05/18 01:40:33;;;;;;;4.68;2.17;;;;;;;9.87;47.02;100611.97;5015297;28;20034;-81
2022/05/18 01:43:10;;;;;;;4.55;2.45;;;;;;;9.81;47.01;100612.97;5031669;28;20048;-80
2022/05/18 01:45:36;;;;;;;3.90;2.58;;;;;;;9.80;47.48;100607.81;5031844;28;20116;-80
2022/05/18 01:48:08;;;;;;;3.85;2.30;;;;;;;9.71;47.62;100612.38;5031209;28;20063;-80
2022/05/18 01:50:34;;;;;;;5.25;2.33;;;;;;;9.73;47.76;100622.72;5015130;28;20132;-81
2022/05/18 01:53:01;;;;;;;2.97;2.05;;;;;;;9.71;47.66;100632.34;5031399;28;20096;-80
2022/05/18 01:55:26;;;;;;;4.38;2.10;;;;;;;9.61;47.90;100623.94;5031762;28;20033;-81
2022/05/18 01:57:51;;;;;;;4.13;2.20;;;;;;;9.59;47.91;100623.13;5031017;28;20142;-81
2022/05/18 02:00:17;;;;;;;2.17;1.95;;;;;;;9.60;48.33;100630.00;5030671;28;20021;-80
2022/05/18 02:02:42;;;;;;;5.88;2.33;;;;;;;9.56;48.17;100628.38;5031516;28;20029;-81
2022/05/18 02:05:09;;;;;;;6.70;2.40;;;;;;;9.48;48.35;100631.22;5086478;28;20100;-81
2022/05/18 02:07:34;;;;;;;4.45;2.30;;;;;;;9.46;48.85;100642.53;5114300;28;20028;-80
2022/05/18 02:10:00;;;;;;;4.20;2.10;;;;;;;9.41;48.84;100640.06;5112804;28;20089;-80
2022/05/18 02:12:26;;;;;;;4.32;2.60;;;;;;;9.39;48.64;100638.38;5114488;28;20376;-80
2022/05/18 02:14:51;;;;;;;2.38;2.05;;;;;;;9.32;48.92;100634.25;5112867;28;20040;-81
2022/05/18 02:17:17;;;;;;;3.38;2.28;;;;;;;9.33;48.92;100636.81;5114387;28;20034;-80
2022/05/18 02:19:42;;;;;;;2.42;1.95;;;;;;;9.30;49.17;100659.44;5114383;28;20023;-81
2022/05/18 02:22:07;;;;;;;5.95;2.40;;;;;;;9.27;49.42;100656.91;5113967;28;20035;-81
2022/05/18 02:24:33;;;;;;;4.22;2.38;;;;;;;9.22;49.34;100651.81;5112772;28;20062;-80
2022/05/18 02:26:58;;;;;;;3.13;2.20;;;;;;;9.24;49.85;100663.91;5112739;28;20058;-81
2022/05/18 02:29:23;;;;;;;2.50;2.20;;;;;;;9.18;50.23;100658.84;5114063;28;20073;-80
2022/05/18 02:31:49;;;;;;;2.97;2.20;;;;;;;9.24;50.21;100668.25;5114125;28;20032;-80
2022/05/18 02:34:15;;;;;;;4.00;2.20;;;;;;;9.16;50.64;100664.97;5113706;28;20094;-80
2022/05/18 02:36:42;;;;;;;2.60;2.20;;;;;;;9.18;51.24;100669.22;5112476;28;20023;-81
2022/05/18 02:39:08;;;;;;;5.07;2.20;;;;;;;9.17;51.29;100669.28;5113510;28;20019;-80
2022/05/18 02:41:33;;;;;;;3.97;2.20;;;;;;;9.13;51.49;100672.84;5113847;27;20049;-80
2022/05/18 02:44:00;;;;;;;3.42;2.65;;;;;;;9.00;51.72;100654.09;5113816;28;20158;-81
2022/05/18 02:46:26;;;;;;;3.75;2.28;;;;;;;9.05;52.12;100673.03;5113852;28;20027;-80
2022/05/18 02:48:51;;;;;;;5.88;2.67;;;;;;;9.03;52.40;100681.75;5112311;28;20169;-81
2022/05/18 02:51:17;;;;;;;4.47;2.20;;;;;;;8.97;52.37;100677.53;5110644;28;20153;-80
2022/05/18 02:53:44;;;;;;;2.78;2.08;;;;;;;8.87;52.44;100681.25;5093976;28;20120;-80
2022/05/18 02:56:16;;;;;;;3.95;2.17;;;;;;;8.86;53.16;100690.81;5110781;28;20148;-80
2022/05/18 02:58:48;;;;;;;3.25;2.67;;;;;;;8.78;53.00;100679.72;5093748;28;20023;-81
2022/05/18 03:01:19;;;;;;;4.30;2.60;;;;;;;8.76;52.98;100678.88;5110549;28;20040;-80
2022/05/18 03:03:45;;;;;;;4.30;2.40;;;;;;;8.73;53.30;100694.56;5093763;28;20028;-80
2022/05/18 03:06:13;;;;;;;5.20;2.25;;;;;;;8.67;53.29;100702.47;5110481;28;20039;-80
2022/05/18 03:08:41;;;;;;;4.20;2.58;;;;;;;8.64;53.32;100706.00;5110698;28;20031;-81
2022/05/18 03:11:07;;;;;;;4.93;2.65;;;;;;;8.58;53.06;100702.69;5093098;28;20035;-80
2022/05/18 03:13:33;;;;;;;4.55;2.63;;;;;;;8.56;53.44;100707.06;5110906;28;20027;-80
2022/05/18 03:15:59;;;;;;;6.35;2.60;;;;;;;8.52;53.22;100708.88;5093226;28;20032;-80
2022/05/18 03:18:25;;;;;;;5.00;2.83;;;;;;;8.42;53.39;100702.16;5110476;28;20038;-80
2022/05/18 03:23:36;;;;;;;6.28;2.45;;;;;;;8.38;54.13;100711.72;5113281;28;20108;-81
2022/05/18 03:26:14;;;;;;;7.68;3.60;;;;;;;8.37;53.89;100723.00;5112704;28;20039;-80
2022/05/18 03:28:43;;;;;;;5.63;2.90;;;;;;;8.35;54.10;100719.56;5111506;28;20031;-80
2022/05/18 03:31:09;;;;;;;4.05;2.63;;;;;;;8.26;54.28;100714.56;5112431;28;20034;-80
2022/05/18 03:33:36;;;;;;;3.78;2.42;;;;;;;8.30;54.34;100726.59;5112996;28;20030;-80
2022/05/18 03:36:03;;;;;;;4.07;2.80;;;;;;;8.25;54.11;100725.81;5112652;28;20028;-80
2022/05/18 03:38:28;;;;;;;6.38;2.78;;;;;;;8.25;54.84;100724.06;5112823;28;20043;-80
2022/05/18 03:40:54;;;;;;;5.18;2.85;;;;;;;8.24;54.64;100729.31;5111317;28;20469;-80
2022/05/18 03:43:20;;;;;;;4.53;2.67;;;;;;;8.22;55.11;100737.13;5111041;28;20016;-80
2022/05/18 03:45:47;;;;;;;4.40;2.70;;;;;;;8.24;55.00;100737.09;5111157;28;20107;-80
2022/05/18 03:48:13;;;;;;;3.92;2.80;;;;;;;8.24;55.07;100744.88;5111092;28;20075;-81
2022/05/18 03:50:42;;;;;;;4.97;2.75;;;;;;;8.30;55.12;100741.31;5112707;28;20028;-80
2022/05/18 03:53:08;;;;;;;4.82;2.60;;;;;;;8.34;54.71;100754.19;5112330;28;20027;-81
2022/05/18 03:55:34;;;;;;;4.28;2.78;;;;;;;8.35;54.83;100735.16;5111186;28;20058;-80
2022/05/18 03:57:59;;;;;;;5.38;2.80;;;;;;;8.45;54.83;100751.41;5110791;28;20032;-80
2022/05/18 04:00:25;;;;;;;5.05;2.50;;;;;;;8.51;54.89;100748.69;5112571;28;20024;-81
2022/05/18 04:02:51;;;;;;;8.95;3.20;;;;;;;8.58;54.75;100741.63;5112362;28;20032;-81
2022/05/18 04:05:20;;;;;;;3.85;2.38;;;;;;;8.80;54.45;100755.00;5110785;28;20049;-81
2022/05/18 04:07:45;;;;;;;7.78;2.95;;;;;;;9.51;53.15;100752.50;5111032;28;20607;-81
2022/05/18 04:10:11;;;;;;;4.43;2.20;;;;;;;10.89;50.31;100748.75;5112404;28;20110;-81
2022/05/18 04:12:36;;;;;;;5.30;2.55;;;;;;;12.60;45.55;100747.31;5110921;28;20028;-81
2022/05/18 04:15:03;;;;;;;4.75;3.20;;;;;;;13.26;42.75;100736.97;5110962;28;20119;-81
2022/05/18 04:17:28;;;;;;;5.20;2.80;;;;;;;13.25;42.24;100743.13;5111067;28;20032;-81
2022/05/18 04:19:54;;;;;;;5.15;2.28;;;;;;;13.13;42.60;100760.13;5112114;28;20457;-81
2022/05/18 04:22:20;;;;;;;5.13;2.38;;;;;;;12.95;42.59;100749.47;5112276;28;20084;-82
2022/05/18 04:24:46;;;;;;;7.00;3.13;;;;;;;12.99;42.97;100752.81;5115174;28;20024;-81
2022/05/18 04:27:11;;;;;;;3.95;2.60;;;;;;;13.26;42.36;100753.50;5114792;28;20024;-81
2022/05/18 04:29:37;;;;;;;7.20;2.45;;;;;;;14.25;40.54;100755.50;5114966;28;20024;-82
2022/05/18 04:32:05;;;;;;;4.90;2.42;;;;;;;15.87;36.97;100760.94;5114914;28;20441;-82
2022/05/18 04:34:30;;;;;;;7.10;2.50;;;;;;;17.42;33.65;100754.28;5115009;28;20418;-81
2022/05/18 04:36:56;;;;;;;5.10;2.50;;;;;;;18.04;32.09;100748.09;5116361;28;20027;-81
2022/05/18 04:39:21;;;;;;;5.25;2.90;;;;;;;17.58;32.03;100756.06;5115939;28;20027;-81
2022/05/18 04:41:47;;;;;;;3.65;2.40;;;;;;;16.64;33.39;100768.28;5114667;28;20071;-82
2022/05/18 04:44:13;;;;;;;5.95;2.67;;;;;;;16.01;34.86;100768.13;5116009;28;20027;-81
2022/05/18 04:46:40;;;;;;;6.65;2.72;;;;;;;15.66;35.84;100770.75;5114929;28;20354;-82
2022/05/18 04:49:06;;;;;;;5.00;2.75;;;;;;;15.45;36.10;100765.59;5115524;28;20123;-81
2022/05/18 04:51:32;;;;;;;3.15;2.53;;;;;;;15.70;36.04;100770.53;5115896;28;20030;-81
2022/05/18 04:53:57;;;;;;;4.93;2.55;;;;;;;17.14;33.88;100760.25;5114700;28;20036;-82
2022/05/18 04:56:24;;;;;;;6.55;2.65;;;;;;;19.14;30.73;100757.91;5114233;28;20026;-82
2022/05/18 04:58:50;;;;;;;5.25;2.28;;;;;;;20.67;27.73;100759.94;5115779;28;20024;-81
2022/05/18 05:01:16;;;;;;;4.45;2.53;;;;;;;20.91;26.66;100774.06;5114274;28;20046;-81
2022/05/18 05:03:41;;;;;;;4.43;2.58;;;;;;;19.75;27.80;100778.63;5114617;28;20028;-81
2022/05/18 05:06:07;;;;;;;5.05;2.50;;;;;;;18.34;29.16;100782.31;5115858;27;20055;-81
2022/05/18 05:08:34;;;;;;;7.03;2.75;;;;;;;17.37;31.24;100787.09;5114271;28;20024;-81
2022/05/18 05:11:00;;;;;;;6.03;2.50;;;;;;;17.02;32.68;100789.91;5114325;28;20395;-82
2022/05/18 05:13:26;;;;;;;3.05;2.33;;;;;;;17.03;32.70;100781.09;5115389;28;20027;-81
2022/05/18 05:16:05;;;;;;;9.30;2.53;;;;;;;17.93;31.53;100772.44;5115758;28;20019;-81
2022/05/18 05:18:31;;;;;;;3.53;2.53;;;;;;;20.42;28.50;100785.44;5115513;28;20085;-81
2022/05/18 05:20:57;;;;;;;5.57;2.60;;;;;;;21.75;25.96;100782.13;5115470;28;20024;-82
2022/05/18 05:23:24;;;;;;;5.97;3.00;;;;;;;22.88;24.51;100784.78;5115033;28;20365;-81
2022/05/18 05:25:50;;;;;;;4.60;2.75;;;;;;;22.22;24.75;100790.94;5115205;28;20055;-81
2022/05/18 05:28:16;;;;;;;5.28;2.55;;;;;;;20.68;26.61;100791.59;5115215;28;20032;-81
2022/05/18 05:30:41;;;;;;;4.85;2.25;;;;;;;19.61;28.18;100798.91;5113927;28;20072;-81
2022/05/18 05:33:06;;;;;;;2.75;2.22;;;;;;;19.28;29.19;100796.63;5113545;28;20020;-82
2022/05/18 05:35:32;;;;;;;3.30;2.42;;;;;;;19.10;29.65;100790.75;5115106;28;20019;-82
2022/05/18 05:37:57;;;;;;;6.55;2.42;;;;;;;20.01;28.48;100800.66;5113765;28;20109;-82
2022/05/18 05:40:23;;;;;;;4.10;2.20;;;;;;;22.52;25.15;100790.34;5114636;28;20052;-82
2022/05/18 05:42:49;;;;;;;4.47;2.30;;;;;;;24.30;22.90;100797.88;5113758;28;20047;-81
2022/05/18 05:45:14;;;;;;;6.40;2.28;;;;;;;24.16;22.10;100804.41;5114546;28;20028;-82
2022/05/18 05:47:40;;;;;;;5.00;1.92;;;;;;;22.58;23.51;100798.66;5113606;28;20071;-81
2022/05/18 05:50:06;;;;;;;6.68;2.83;;;;;;;21.56;25.21;100793.22;5114350;28;20044;-81
2022/05/18 05:52:32;;;;;;;3.72;2.38;;;;;;;20.92;25.68;100799.59;5114685;28;20435;-81
2022/05/18 05:54:59;;;;;;;2.95;1.80;;;;;;;20.60;27.14;100807.16;5114663;28;20062;-82
2022/05/18 05:57:25;;;;;;;3.78;2.03;;;;;;;20.61;26.92;100815.97;5113317;28;20031;-82
2022/05/18 05:59:50;;;;;;;4.47;2.20;;;;;;;20.48;27.21;100808.03;5114720;28;20049;-81
2022/05/18 06:02:16;;;;;;;3.28;2.20;;;;;;;20.64;27.17;100802.50;5112953;28;20476;-81
2022/05/18 06:04:42;;;;;;;4.93;1.92;;;;;;;20.76;26.54;100811.38;5113377;28;20031;-82
2022/05/18 06:07:08;;;;;;;5.30;2.63;;;;;;;20.82;26.46;100808.31;5112930;28;20016;-82
2022/05/18 06:09:34;;;;;;;4.00;2.20;;;;;;;20.42;26.44;100829.59;5113234;28;20054;-82
2022/05/18 06:12:00;;;;;;;4.82;2.28;;;;;;;19.80;26.80;100829.38;5114590;28;20034;-82
2022/05/18 06:14:25;;;;;;;4.30;2.45;;;;;;;19.76;27.34;100804.94;5114405;28;20027;-82
2022/05/18 06:16:51;;;;;;;3.40;2.20;;;;;;;20.23;26.98;100830.00;5114365;27;20098;-82
2022/05/18 06:19:17;;;;;;;5.20;2.10;;;;;;;20.32;26.99;100824.09;5114150;28;20024;-81
2022/05/18 06:21:43;;;;;;;3.50;2.03;;;;;;;20.16;26.63;100837.50;5112858;28;20016;-81
2022/05/18 06:24:10;;;;;;;4.30;2.25;;;;;;;20.03;27.12;100827.88;5114294;28;20093;-82
2022/05/18 06:26:36;;;;;;;3.80;2.15;;;;;;;20.23;27.05;100830.00;5114348;28;20027;-82
2022/05/18 06:29:05;;;;;;;6.35;2.50;;;;;;;20.09;26.95;100823.00;5114143;27;20034;-82
2022/05/18 06:31:31;;;;;;;3.72;2.10;;;;;;;20.21;27.35;100823.97;5112527;28;20380;-81
2022/05/18 06:33:57;;;;;;;4.10;2.30;;;;;;;20.51;27.35;100836.91;5114003;28;20028;-82
2022/05/18 06:36:22;;;;;;;3.00;2.10;;;;;;;22.14;25.75;100826.00;5112349;28;20055;-83
2022/05/18 06:38:48;;;;;;;3.65;2.30;;;;;;;24.60;23.38;100840.53;5113736;28;20066;-82
2022/05/18 06:41:22;;;;;;;7.75;2.55;;;;;;;27.43;20.77;100825.97;5112250;28;20472;-81
2022/05/18 06:43:49;;;;;;;3.13;2.25;;;;;;;30.04;18.19;100832.66;5113732;28;20076;-84
2022/05/18 06:46:15;;;;;;;4.90;1.88;;;;;;;31.50;16.66;100820.56;5113013;28;20028;-85
2022/05/18 06:48:41;;;;;;;3.35;2.05;;;;;;;32.03;15.61;100840.38;5112071;28;20052;-83
2022/05/18 06:51:07;;;;;;;4.30;2.10;;;;;;;32.73;15.36;100855.31;5090490;28;20425;-83
2022/05/18 06:53:32;;;;;;;4.43;2.30;;;;;;;32.66;14.85;100856.28;5090529;28;20135;-83
2022/05/18 06:55:58;;;;;;;3.67;2.00;;;;;;;32.55;15.19;100846.78;5090598;28;20032;-83
2022/05/18 06:58:23;;;;;;;5.20;2.03;;;;;;;32.53;15.23;100851.50;5090738;28;20060;-84
2022/05/18 07:00:49;;;;;;;4.30;2.25;;;;;;;32.05;15.28;100867.13;5070003;28;20110;-84
2022/05/18 07:03:15;;;;;;;4.55;2.20;;;;;;;31.63;16.05;100838.81;5069936;28;20115;-84
2022/05/18 07:05:40;;;;;;;5.53;2.50;;;;;;;31.54;15.59;100864.13;5069930;28;20054;-84
2022/05/18 07:08:06;;;;;;;6.00;2.25;;;;;;;31.46;15.29;100862.31;5070049;28;20477;-84
2022/05/18 07:10:32;;;;;;;4.50;2.28;;;;;;;31.64;15.59;100855.81;5052235;28;20079;-84
2022/05/18 07:12:57;;;;;;;3.35;2.10;;;;;;;31.33;15.36;100862.06;5070002;28;20444;-83
2022/05/18 07:15:23;;;;;;;5.63;2.40;;;;;;;31.25;15.67;100860.22;5069709;28;20036;-83
2022/05/18 07:17:49;;;;;;;4.72;2.13;;;;;;;30.95;15.98;100864.59;5053283;28;20113;-83
2022/05/18 07:20:14;;;;;;;4.95;2.15;;;;;;;31.25;16.21;100857.53;5069553;28;20609;-84
2022/05/18 07:22:40;;;;;;;2.22;1.90;;;;;;;31.36;15.93;100852.81;5084567;28;20032;-84
2022/05/18 07:25:06;;;;;;;3.22;1.70;;;;;;;31.59;16.27;100863.59;5090031;28;20035;-84
2022/05/18 07:27:31;;;;;;;4.82;2.45;;;;;;;30.95;16.35;100861.91;5089853;28;20093;-84
2022/05/18 07:29:56;;;;;;;4.32;2.13;;;;;;;30.51;16.88;100857.00;5073106;28;20024;-83
2022/05/18 07:32:22;;;;;;;6.07;2.35;;;;;;;30.27;16.95;100859.72;5106482;28;20374;-83
2022/05/18 07:34:48;;;;;;;5.13;2.20;;;;;;;30.14;17.09;100868.28;5111605;28;20016;-83
2022/05/18 07:37:16;;;;;;;6.95;2.45;;;;;;;29.65;17.26;100865.56;5112774;28;20051;-83
2022/05/18 07:39:41;;;;;;;4.15;2.30;;;;;;;29.38;17.14;100858.63;5111665;28;20038;-84
2022/05/18 07:42:08;;;;;;;3.05;2.10;;;;;;;29.00;17.67;100870.75;5112483;28;20027;-83
2022/05/18 07:44:35;;;;;;;5.13;2.20;;;;;;;29.06;17.54;100864.72;5112359;28;20072;-83
2022/05/18 07:47:02;;;;;;;4.82;2.17;;;;;;;28.88;18.03;100859.41;5112584;28;20460;-83
2022/05/18 07:49:28;;;;;;;3.15;2.25;;;;;;;29.40;17.80;100858.44;5112244;28;20035;-83
2022/05/18 07:51:53;;;;;;;7.95;2.70;;;;;;;29.55;17.56;100863.00;5112540;28;20527;-83
2022/05/18 07:54:19;;;;;;;3.33;2.10;;;;;;;29.16;17.39;100860.06;5112482;28;20031;-83
2022/05/18 07:56:44;;;;;;;14.57;2.50;;;;;;;28.84;17.19;100866.94;5110394;28;20141;-83
2022/05/18 07:59:11;;;;;;;11.32;5.53;;;;;;;28.16;17.99;100857.97;5111096;28;20449;-83
2022/05/18 08:01:36;;;;;;;3.83;2.10;;;;;;;27.95;18.02;100859.13;5110729;28;20076;-83
2022/05/18 08:04:03;;;;;;;14.23;8.23;;;;;;;28.13;17.75;100859.09;5112285;28;20543;-83
2022/05/18 08:06:29;;;;;;;20.52;13.85;;;;;;;28.37;18.09;100857.63;5112291;28;20037;-83
2022/05/18 08:08:55;;;;;;;8.10;3.22;;;;;;;29.17;17.64;100848.31;5110876;28;20031;-83
2022/05/18 08:16:50;;;;;;;3.40;2.25;;;;;;;25.61;19.99;100865.41;5112456;28;20062;-83
2022/05/18 08:19:16;;;;;;;3.72;2.13;;;;;;;24.06;20.63;100870.88;5112124;28;20024;-83
2022/05/18 08:21:42;;;;;;;3.13;2.20;;;;;;;22.99;21.66;100862.81;5112185;28;20030;-83
2022/05/18 08:24:08;;;;;;;4.20;2.03;;;;;;;22.10;23.11;100859.84;5112074;28;20036;-83
2022/05/18 08:26:34;;;;;;;5.93;2.20;;;;;;;21.89;24.14;100872.94;5111657;28;20031;-83
2022/05/18 08:29:02;;;;;;;2.33;2.00;;;;;;;21.12;24.35;100852.97;5110733;28;20027;-83
2022/05/18 08:31:27;;;;;;;5.57;2.35;;;;;;;20.79;25.41;100872.91;5112102;28;20072;-83
2022/05/18 08:33:55;;;;;;;3.53;1.75;;;;;;;20.75;26.05;100870.59;5112317;28;20032;-83
2022/05/18 08:36:24;;;;;;;7.18;2.70;;;;;;;20.69;26.06;100871.88;5110890;28;20054;-83
2022/05/18 08:38:49;;;;;;;3.70;2.20;;;;;;;20.48;25.58;100870.66;5112064;28;20051;-83
2022/05/18 08:41:30;;;;;;;3.47;1.75;;;;;;;20.23;25.63;100879.44;5111846;28;20464;-82
2022/05/18 08:44:02;;;;;;;5.00;2.38;;;;;;;19.89;25.29;100874.59;5110942;28;20055;-82
2022/05/18 08:46:53;;;;;;;5.22;2.10;;;;;;;19.85;26.20;100866.97;5110654;28;20023;-82
2022/05/18 08:49:42;;;;;;;4.13;2.05;;;;;;;19.90;26.24;100873.63;5091618;28;20108;-82
2022/05/18 08:52:37;;;;;;;3.58;1.52;;;;;;;19.92;26.18;100868.25;5068722;28;20040;-82
2022/05/18 08:55:03;;;;;;;5.40;2.30;;;;;;;19.74;25.53;100872.09;5068948;28;20413;-82
2022/05/18 08:57:35;;;;;;;2.95;1.98;;;;;;;19.45;25.83;100865.06;5051806;28;20032;-83
2022/05/18 09:00:11;;;;;;;3.72;2.10;;;;;;;19.39;26.73;100852.28;5068820;28;20044;-82
2022/05/18 09:02:40;;;;;;;7.47;2.10;;;;;;;19.50;26.83;100864.78;5068403;28;20083;-82
2022/05/18 09:05:12;;;;;;;3.88;2.20;;;;;;;19.44;26.19;100863.38;5052060;28;20031;-83
2022/05/18 09:07:43;;;;;;;4.85;2.10;;;;;;;19.45;26.09;100865.06;5068402;28;20044;-82
2022/05/18 09:10:23;;;;;;;2.03;1.70;;;;;;;19.42;26.50;100859.13;5072583;28;20037;-82
2022/05/18 09:12:52;;;;;;;3.67;1.88;;;;;;;19.39;26.41;100868.13;5055758;28;20066;-82
2022/05/18 09:15:25;;;;;;;3.50;2.10;;;;;;;19.38;27.00;100863.78;5072300;28;20047;-82
2022/05/18 09:18:04;;;;;;;4.40;1.90;;;;;;;19.44;27.64;100858.09;5072218;28;20452;-83
2022/05/18 09:20:35;;;;;;;4.13;2.20;;;;;;;19.52;26.95;100875.25;5071982;28;20712;-82
2022/05/18 09:23:04;;;;;;;3.08;1.92;;;;;;;19.39;26.22;100881.34;5070921;28;20036;-83
2022/05/18 09:26:01;;;;;;;4.20;1.75;;;;;;;19.20;24.31;100878.16;5093501;28;20035;-82
2022/05/18 09:28:52;;;;;;;5.00;1.92;;;;;;;18.95;24.25;100884.94;5093371;28;20523;-82
2022/05/18 09:31:50;;;;;;;4.10;2.03;;;;;;;18.65;24.29;100877.09;5094635;28;20028;-82
2022/05/18 09:34:21;;;;;;;3.47;2.03;;;;;;;18.43;24.89;100874.91;5094981;28;20017;-82
2022/05/18 09:36:50;;;;;;;4.07;2.03;;;;;;;18.42;25.38;100867.94;5093503;28;20127;-82
2022/05/18 09:39:21;;;;;;;4.22;2.28;;;;;;;18.35;25.17;100863.13;5093419;28;20362;-82
2022/05/18 09:41:49;;;;;;;2.92;1.90;;;;;;;18.37;25.77;100864.75;5094537;28;20020;-82
2022/05/18 09:44:22;;;;;;;5.88;2.17;;;;;;;18.32;26.35;100872.06;5093139;28;20027;-82
2022/05/18 09:46:50;;;;;;;5.00;2.20;;;;;;;18.36;27.02;100859.53;5103879;28;20027;-82
2022/05/18 09:49:29;;;;;;;3.20;2.08;;;;;;;18.52;27.00;100868.22;5114689;28;20048;-83
2022/05/18 09:51:57;;;;;;;4.20;2.00;;;;;;;18.59;25.72;100874.84;5113520;28;20046;-84
2022/05/18 09:54:23;;;;;;;2.65;1.90;;;;;;;18.52;25.34;100859.47;5114566;28;20035;-82
2022/05/18 09:56:59;;;;;;;3.72;1.75;;;;;;;18.38;25.29;100860.31;5114886;27;20476;-82
2022/05/18 09:59:30;;;;;;;5.70;2.08;;;;;;;18.46;25.06;100865.97;5114841;28;20067;-82
2022/05/18 10:07:32;;;;;;;3.85;2.10;;;;;;;18.41;25.92;100863.63;5114245;28;20086;-82
2022/05/18 10:10:22;;;;;;;2.95;1.90;;;;;;;18.53;26.02;100869.91;5114533;28;20077;-82
2022/05/18 10:12:59;;;;;;;5.78;2.00;;;;;;;18.52;24.62;100856.84;5113191;28;20547;-81
2022/05/18 10:15:25;;;;;;;1.98;1.77;;;;;;;18.58;24.45;100864.38;5114403;28;20038;-82
2022/05/18 10:17:55;;;;;;;2.53;1.80;;;;;;;18.61;24.29;100857.13;5114733;28;20543;-82
2022/05/18 10:20:34;;;;;;;3.03;1.98;;;;;;;18.29;22.66;100856.44;5113344;28;20027;-81
2022/05/18 10:23:00;;;;;;;2.63;1.63;;;;;;;18.15;23.44;100856.38;5114625;28;20484;-81
2022/05/18 10:25:32;;;;;;;2.90;1.70;;;;;;;18.10;23.67;100856.66;5113919;28;20068;-81
2022/05/18 10:28:02;;;;;;;3.55;1.67;;;;;;;18.05;24.56;100856.09;5112710;28;20039;-81
2022/05/18 10:30:34;;;;;;;3.30;1.80;;;;;;;18.11;25.05;100845.16;5113973;27;20027;-82
2022/05/18 10:33:07;;;;;;;1.80;1.70;;;;;;;18.28;25.05;100846.81;5114147;28;20023;-82
2022/05/18 10:35:41;;;;;;;6.78;2.60;;;;;;;18.37;25.41;100843.63;5113842;28;20027;-81
2022/05/18 10:38:34;;;;;;;3.08;1.40;;;;;;;18.55;25.11;100846.09;5112461;28;20030;-81
2022/05/18 10:41:02;;;;;;;1.95;1.75;;;;;;;18.74;24.98;100835.28;5113976;28;20027;-81
2022/05/18 10:43:38;;;;;;;2.58;1.60;;;;;;;18.82;23.95;100833.88;5113516;28;20035;-81
2022/05/18 10:46:10;;;;;;;2.80;1.67;;;;;;;18.80;23.53;100832.28;5112463;28;20089;-81
2022/05/18 10:48:36;;;;;;;3.03;1.98;;;;;;;18.79;24.26;100826.13;5111904;28;20392;-81
2022/05/18 10:51:04;;;;;;;1.63;1.45;;;;;;;19.00;24.12;100841.56;5113637;28;20034;-81
2022/05/18 10:53:33;;;;;;;1.92;1.60;;;;;;;19.10;24.24;100834.78;5112744;28;20027;-81
2022/05/18 10:56:04;;;;;;;1.98;1.75;;;;;;;19.11;23.38;100812.72;5113152;28;20031;-81
2022/05/18 10:58:32;;;;;;;1.58;1.48;;;;;;;19.23;23.87;100825.13;5111692;28;20046;-82
2022/05/18 11:01:18;;;;;;;2.22;1.80;;;;;;;19.26;22.74;100826.75;5113241;28;20076;-81
2022/05/18 11:04:02;;;;;;;4.00;1.92;;;;;;;19.31;21.53;100830.78;5112054;28;20085;-81
2022/05/18 11:06:39;;;;;;;3.13;1.55;;;;;;;19.34;22.40;100819.16;5111985;28;20042;-81
2022/05/18 11:09:27;;;;;;;6.03;1.67;;;;;;;19.42;22.51;100822.16;5113345;28;20038;-81
2022/05/18 11:12:24;;;;;;;3.40;1.85;;;;;;;19.39;22.49;100811.78;5113501;28;20472;-81
2022/05/18 11:15:18;;;;;;;3.38;1.80;;;;;;;19.14;23.00;100805.44;5113295;28;20024;-81
2022/05/18 11:18:06;;;;;;;4.22;1.80;;;;;;;19.06;23.15;100804.25;5111548;28;20115;-81
2022/05/18 11:20:53;;;;;;;1.85;1.73;;;;;;;19.05;23.33;100800.75;5029723;28;20041;-81
2022/05/18 11:23:37;;;;;;;2.65;1.50;;;;;;;19.02;22.57;100811.50;5013516;28;20033;-82
2022/05/18 11:26:35;;;;;;;2.05;1.73;;;;;;;18.86;22.68;100806.34;5012655;28;20136;-81
2022/05/18 11:29:09;;;;;;;2.55;1.95;;;;;;;18.84;22.04;100802.97;5010624;28;20068;-81
2022/05/18 11:31:51;;;;;;;4.22;1.70;;;;;;;18.75;21.17;100792.97;5011515;28;20041;-81
2022/05/18 11:34:44;;;;;;;3.67;1.80;;;;;;;18.69;21.02;100788.03;5010053;28;20028;-81
2022/05/18 11:37:38;;;;;;;2.25;1.90;;;;;;;18.68;21.66;100789.00;5011742;28;20063;-81
2022/05/18 11:40:15;;;;;;;3.72;1.67;;;;;;;18.69;21.11;100782.75;5012070;28;20398;-81
2022/05/18 11:42:59;;;;;;;3.22;1.50;;;;;;;18.74;21.45;100780.72;5011504;28;20060;-81
2022/05/18 11:45:41;;;;;;;2.63;1.77;;;;;;;18.85;21.70;100785.31;5028377;28;20118;-81
2022/05/18 11:48:25;;;;;;;1.65;1.55;;;;;;;18.83;21.76;100780.13;5025805;28;20521;-81
2022/05/18 11:50:56;;;;;;;2.40;1.75;;;;;;;18.74;21.73;100754.31;5011671;28;20526;-81